sensor_id;sensor_type;location;lat;lon;timestamp;P1;P2;P0
47810;PMS5003;33575;52.600;7.318;2023-04-01T00:02:17;7;7;
47810;PMS5003;33575;52.600;7.318;2023-04-01T00:04:48;6;6;
47810;PMS5003;33575;52.600;7.318;2023-04-01T00:07:18;7;6;
47810;PMS5003;33575;52.600;7.318;2023-04-01T00:09:49;8;7;
47810;PMS5003;33575;52.600;7.318;2023-04-01T00:12:19;6;6;
47810;PMS5003;33575;52.600;7.318;2023-04-01T00:14:50;7;6;
47810;PMS5003;33575;52.600;7.318;2023-04-01T00:17:20;6;6;
47810;PMS5003;33575;52.600;7.318;2023-04-01T00:19:51;8;8;
47810;PMS5003;33575;52.600;7.318;2023-04-01T00:22:21;6;6;
47810;PMS5003;33575;52.600;7.318;2023-04-01T00:24:52;4;4;
47810;PMS5003;33575;52.600;7.318;2023-04-01T00:27:22;7;6;
47810;PMS5003;33575;52.600;7.318;2023-04-01T00:29:53;8;8;
47810;PMS5003;33575;52.600;7.318;2023-04-01T00:32:24;6;6;
47810;PMS5003;33575;52.600;7.318;2023-04-01T00:34:54;6;6;
47810;PMS5003;33575;52.600;7.318;2023-04-01T00:37:25;6;6;
47810;PMS5003;33575;52.600;7.318;2023-04-01T00:39:55;7;7;
47810;PMS5003;33575;52.600;7.318;2023-04-01T00:42:25;5;5;
47810;PMS5003;33575;52.600;7.318;2023-04-01T00:44:56;6;6;
47810;PMS5003;33575;52.600;7.318;2023-04-01T00:47:26;5;5;
47810;PMS5003;33575;52.600;7.318;2023-04-01T00:49:57;6;5;
47810;PMS5003;33575;52.600;7.318;2023-04-01T00:52:28;5;5;
47810;PMS5003;33575;52.600;7.318;2023-04-01T00:54:58;4;4;
47810;PMS5003;33575;52.600;7.318;2023-04-01T00:57:29;5;5;
47810;PMS5003;33575;52.600;7.318;2023-04-01T00:59:59;6;6;
47810;PMS5003;33575;52.600;7.318;2023-04-01T01:02:30;5;5;
47810;PMS5003;33575;52.600;7.318;2023-04-01T01:05:00;6;6;
47810;PMS5003;33575;52.600;7.318;2023-04-01T01:07:32;7;7;
47810;PMS5003;33575;52.600;7.318;2023-04-01T01:10:02;7;7;
47810;PMS5003;33575;52.600;7.318;2023-04-01T01:12:34;8;7;
47810;PMS5003;33575;52.600;7.318;2023-04-01T01:15:06;9;8;
47810;PMS5003;33575;52.600;7.318;2023-04-01T01:17:35;7;7;
47810;PMS5003;33575;52.600;7.318;2023-04-01T01:22:36;7;6;
47810;PMS5003;33575;52.600;7.318;2023-04-01T01:25:08;9;8;
47810;PMS5003;33575;52.600;7.318;2023-04-01T01:27:35;8;8;
47810;PMS5003;33575;52.600;7.318;2023-04-01T01:30:08;10;9;
47810;PMS5003;33575;52.600;7.318;2023-04-01T01:35:11;7;7;
47810;PMS5003;33575;52.600;7.318;2023-04-01T01:37:37;8;8;
47810;PMS5003;33575;52.600;7.318;2023-04-01T01:40:09;9;8;
47810;PMS5003;33575;52.600;7.318;2023-04-01T01:42:38;12;11;
47810;PMS5003;33575;52.600;7.318;2023-04-01T01:45:09;9;9;
47810;PMS5003;33575;52.600;7.318;2023-04-01T01:47:39;10;9;
47810;PMS5003;33575;52.600;7.318;2023-04-01T01:50:09;12;11;
47810;PMS5003;33575;52.600;7.318;2023-04-01T01:52:40;12;11;
47810;PMS5003;33575;52.600;7.318;2023-04-01T01:57:41;11;11;
47810;PMS5003;33575;52.600;7.318;2023-04-01T02:00:12;12;12;
47810;PMS5003;33575;52.600;7.318;2023-04-01T02:02:42;13;11;
47810;PMS5003;33575;52.600;7.318;2023-04-01T02:05:14;13;12;
47810;PMS5003;33575;52.600;7.318;2023-04-01T02:07:43;12;11;
47810;PMS5003;33575;52.600;7.318;2023-04-01T02:10:13;14;13;
47810;PMS5003;33575;52.600;7.318;2023-04-01T02:12:43;11;11;
47810;PMS5003;33575;52.600;7.318;2023-04-01T02:15:14;15;15;
47810;PMS5003;33575;52.600;7.318;2023-04-01T02:17:45;11;10;
47810;PMS5003;33575;52.600;7.318;2023-04-01T02:20:16;15;13;
47810;PMS5003;33575;52.600;7.318;2023-04-01T02:22:46;15;15;
47810;PMS5003;33575;52.600;7.318;2023-04-01T02:25:17;12;12;
47810;PMS5003;33575;52.600;7.318;2023-04-01T02:27:46;14;14;
47810;PMS5003;33575;52.600;7.318;2023-04-01T02:30:17;13;13;
47810;PMS5003;33575;52.600;7.318;2023-04-01T02:32:47;15;14;
47810;PMS5003;33575;52.600;7.318;2023-04-01T02:35:17;14;14;
47810;PMS5003;33575;52.600;7.318;2023-04-01T02:37:48;17;16;
47810;PMS5003;33575;52.600;7.318;2023-04-01T02:40:18;14;14;
47810;PMS5003;33575;52.600;7.318;2023-04-01T02:42:48;14;13;
47810;PMS5003;33575;52.600;7.318;2023-04-01T02:45:19;16;16;
47810;PMS5003;33575;52.600;7.318;2023-04-01T02:47:49;17;16;
47810;PMS5003;33575;52.600;7.318;2023-04-01T02:50:20;15;15;
47810;PMS5003;33575;52.600;7.318;2023-04-01T02:52:50;17;14;
47810;PMS5003;33575;52.600;7.318;2023-04-01T02:55:20;16;15;
47810;PMS5003;33575;52.600;7.318;2023-04-01T02:57:50;19;17;
47810;PMS5003;33575;52.600;7.318;2023-04-01T03:00:21;14;13;
47810;PMS5003;33575;52.600;7.318;2023-04-01T03:02:52;17;17;
47810;PMS5003;33575;52.600;7.318;2023-04-01T03:05:22;17;17;
47810;PMS5003;33575;52.600;7.318;2023-04-01T03:07:52;17;15;
47810;PMS5003;33575;52.600;7.318;2023-04-01T03:10:23;14;13;
47810;PMS5003;33575;52.600;7.318;2023-04-01T03:12:53;15;14;
47810;PMS5003;33575;52.600;7.318;2023-04-01T03:15:24;13;13;
47810;PMS5003;33575;52.600;7.318;2023-04-01T03:17:54;13;13;
47810;PMS5003;33575;52.600;7.318;2023-04-01T03:20:25;14;14;
47810;PMS5003;33575;52.600;7.318;2023-04-01T03:22:55;14;13;
47810;PMS5003;33575;52.600;7.318;2023-04-01T03:25:25;12;11;
47810;PMS5003;33575;52.600;7.318;2023-04-01T03:27:56;14;13;
47810;PMS5003;33575;52.600;7.318;2023-04-01T03:30:27;15;14;
47810;PMS5003;33575;52.600;7.318;2023-04-01T03:32:58;14;13;
47810;PMS5003;33575;52.600;7.318;2023-04-01T03:35:27;15;14;
47810;PMS5003;33575;52.600;7.318;2023-04-01T03:37:58;15;14;
47810;PMS5003;33575;52.600;7.318;2023-04-01T03:40:28;12;12;
47810;PMS5003;33575;52.600;7.318;2023-04-01T03:42:59;12;11;
47810;PMS5003;33575;52.600;7.318;2023-04-01T03:45:30;12;12;
47810;PMS5003;33575;52.600;7.318;2023-04-01T03:48:00;11;11;
47810;PMS5003;33575;52.600;7.318;2023-04-01T03:50:34;13;13;
47810;PMS5003;33575;52.600;7.318;2023-04-01T03:53:01;12;12;
47810;PMS5003;33575;52.600;7.318;2023-04-01T03:55:32;12;12;
47810;PMS5003;33575;52.600;7.318;2023-04-01T03:58:02;10;10;
47810;PMS5003;33575;52.600;7.318;2023-04-01T04:00:32;11;11;
47810;PMS5003;33575;52.600;7.318;2023-04-01T04:03:03;14;12;
47810;PMS5003;33575;52.600;7.318;2023-04-01T04:05:33;9;8;
47810;PMS5003;33575;52.600;7.318;2023-04-01T04:08:04;13;12;
47810;PMS5003;33575;52.600;7.318;2023-04-01T04:10:34;9;9;
47810;PMS5003;33575;52.600;7.318;2023-04-01T04:13:05;11;11;
47810;PMS5003;33575;52.600;7.318;2023-04-01T04:15:35;12;12;
47810;PMS5003;33575;52.600;7.318;2023-04-01T04:18:06;13;11;
47810;PMS5003;33575;52.600;7.318;2023-04-01T04:20:36;9;9;
47810;PMS5003;33575;52.600;7.318;2023-04-01T04:23:06;9;9;
47810;PMS5003;33575;52.600;7.318;2023-04-01T04:25:37;12;11;
47810;PMS5003;33575;52.600;7.318;2023-04-01T04:28:07;8;8;
47810;PMS5003;33575;52.600;7.318;2023-04-01T04:30:38;10;10;
47810;PMS5003;33575;52.600;7.318;2023-04-01T04:33:08;9;9;
47810;PMS5003;33575;52.600;7.318;2023-04-01T04:35:39;8;8;
47810;PMS5003;33575;52.600;7.318;2023-04-01T04:38:09;9;9;
47810;PMS5003;33575;52.600;7.318;2023-04-01T04:40:40;9;9;
47810;PMS5003;33575;52.600;7.318;2023-04-01T04:43:11;8;8;
47810;PMS5003;33575;52.600;7.318;2023-04-01T04:45:41;10;9;
47810;PMS5003;33575;52.600;7.318;2023-04-01T04:48:13;9;9;
47810;PMS5003;33575;52.600;7.318;2023-04-01T04:50:42;9;8;
47810;PMS5003;33575;52.600;7.318;2023-04-01T04:53:13;10;9;
47810;PMS5003;33575;52.600;7.318;2023-04-01T04:55:43;10;10;
47810;PMS5003;33575;52.600;7.318;2023-04-01T04:58:14;10;9;
47810;PMS5003;33575;52.600;7.318;2023-04-01T05:00:44;11;10;
47810;PMS5003;33575;52.600;7.318;2023-04-01T05:03:15;9;9;
47810;PMS5003;33575;52.600;7.318;2023-04-01T05:05:49;10;9;
47810;PMS5003;33575;52.600;7.318;2023-04-01T05:08:16;11;10;
47810;PMS5003;33575;52.600;7.318;2023-04-01T05:10:46;14;13;
47810;PMS5003;33575;52.600;7.318;2023-04-01T05:13:16;12;12;
47810;PMS5003;33575;52.600;7.318;2023-04-01T05:15:47;11;11;
47810;PMS5003;33575;52.600;7.318;2023-04-01T05:18:17;14;12;
47810;PMS5003;33575;52.600;7.318;2023-04-01T05:20:48;13;12;
47810;PMS5003;33575;52.600;7.318;2023-04-01T05:23:18;13;12;
47810;PMS5003;33575;52.600;7.318;2023-04-01T05:25:49;12;12;
47810;PMS5003;33575;52.600;7.318;2023-04-01T05:28:19;12;12;
47810;PMS5003;33575;52.600;7.318;2023-04-01T05:30:50;13;12;
47810;PMS5003;33575;52.600;7.318;2023-04-01T05:33:20;12;12;
47810;PMS5003;33575;52.600;7.318;2023-04-01T05:35:51;11;9;
47810;PMS5003;33575;52.600;7.318;2023-04-01T05:38:22;14;13;
47810;PMS5003;33575;52.600;7.318;2023-04-01T05:43:22;15;14;
47810;PMS5003;33575;52.600;7.318;2023-04-01T05:45:52;13;12;
47810;PMS5003;33575;52.600;7.318;2023-04-01T05:48:23;14;14;
47810;PMS5003;33575;52.600;7.318;2023-04-01T05:50:53;18;17;
47810;PMS5003;33575;52.600;7.318;2023-04-01T05:53:23;13;12;
47810;PMS5003;33575;52.600;7.318;2023-04-01T05:55:54;13;13;
47810;PMS5003;33575;52.600;7.318;2023-04-01T05:58:24;12;11;
47810;PMS5003;33575;52.600;7.318;2023-04-01T06:01:00;13;12;
47810;PMS5003;33575;52.600;7.318;2023-04-01T06:03:25;14;14;
47810;PMS5003;33575;52.600;7.318;2023-04-01T06:05:56;17;14;
47810;PMS5003;33575;52.600;7.318;2023-04-01T06:08:26;11;11;
47810;PMS5003;33575;52.600;7.318;2023-04-01T06:11:04;11;11;
47810;PMS5003;33575;52.600;7.318;2023-04-01T06:13:31;14;13;
47810;PMS5003;33575;52.600;7.318;2023-04-01T06:15:59;12;12;
47810;PMS5003;33575;52.600;7.318;2023-04-01T06:20:59;10;10;
47810;PMS5003;33575;52.600;7.318;2023-04-01T06:23:32;11;10;
47810;PMS5003;33575;52.600;7.318;2023-04-01T06:26:03;11;11;
47810;PMS5003;33575;52.600;7.318;2023-04-01T06:28:35;10;10;
47810;PMS5003;33575;52.600;7.318;2023-04-01T06:31:02;15;14;
47810;PMS5003;33575;52.600;7.318;2023-04-01T06:33:35;11;11;
47810;PMS5003;33575;52.600;7.318;2023-04-01T06:36:06;9;9;
47810;PMS5003;33575;52.600;7.318;2023-04-01T06:38:36;9;9;
47810;PMS5003;33575;52.600;7.318;2023-04-01T06:41:06;9;8;
47810;PMS5003;33575;52.600;7.318;2023-04-01T06:43:35;8;8;
47810;PMS5003;33575;52.600;7.318;2023-04-01T06:46:05;9;8;
47810;PMS5003;33575;52.600;7.318;2023-04-01T06:48:37;8;8;
47810;PMS5003;33575;52.600;7.318;2023-04-01T06:51:07;8;7;
47810;PMS5003;33575;52.600;7.318;2023-04-01T06:53:35;8;7;
47810;PMS5003;33575;52.600;7.318;2023-04-01T06:56:05;7;7;
47810;PMS5003;33575;52.600;7.318;2023-04-01T06:58:36;7;7;
47810;PMS5003;33575;52.600;7.318;2023-04-01T07:01:07;7;7;
47810;PMS5003;33575;52.600;7.318;2023-04-01T07:03:38;6;6;
47810;PMS5003;33575;52.600;7.318;2023-04-01T07:06:08;7;7;
47810;PMS5003;33575;52.600;7.318;2023-04-01T07:08:37;6;6;
47810;PMS5003;33575;52.600;7.318;2023-04-01T07:11:09;6;6;
47810;PMS5003;33575;52.600;7.318;2023-04-01T07:13:39;5;5;
47810;PMS5003;33575;52.600;7.318;2023-04-01T07:16:11;5;5;
47810;PMS5003;33575;52.600;7.318;2023-04-01T07:18:41;6;5;
47810;PMS5003;33575;52.600;7.318;2023-04-01T07:21:10;6;6;
47810;PMS5003;33575;52.600;7.318;2023-04-01T07:23:40;6;5;
47810;PMS5003;33575;52.600;7.318;2023-04-01T07:26:15;5;5;
47810;PMS5003;33575;52.600;7.318;2023-04-01T07:28:41;4;4;
47810;PMS5003;33575;52.600;7.318;2023-04-01T07:31:15;6;5;
47810;PMS5003;33575;52.600;7.318;2023-04-01T07:33:43;7;6;
47810;PMS5003;33575;52.600;7.318;2023-04-01T07:36:13;6;6;
47810;PMS5003;33575;52.600;7.318;2023-04-01T07:38:45;4;4;
47810;PMS5003;33575;52.600;7.318;2023-04-01T07:41:14;3;2;
47810;PMS5003;33575;52.600;7.318;2023-04-01T07:43:47;6;6;
47810;PMS5003;33575;52.600;7.318;2023-04-01T07:46:17;7;6;
47810;PMS5003;33575;52.600;7.318;2023-04-01T07:48:45;6;5;
47810;PMS5003;33575;52.600;7.318;2023-04-01T07:51:16;4;4;
47810;PMS5003;33575;52.600;7.318;2023-04-01T07:53:46;5;5;
47810;PMS5003;33575;52.600;7.318;2023-04-01T07:56:17;6;6;
47810;PMS5003;33575;52.600;7.318;2023-04-01T07:58:50;5;5;
47810;PMS5003;33575;52.600;7.318;2023-04-01T08:01:18;4;4;
47810;PMS5003;33575;52.600;7.318;2023-04-01T08:03:52;5;5;
47810;PMS5003;33575;52.600;7.318;2023-04-01T08:06:19;5;4;
47810;PMS5003;33575;52.600;7.318;2023-04-01T08:08:51;4;3;
47810;PMS5003;33575;52.600;7.318;2023-04-01T08:11:22;4;4;
47810;PMS5003;33575;52.600;7.318;2023-04-01T08:13:51;5;5;
47810;PMS5003;33575;52.600;7.318;2023-04-01T08:16:20;6;6;
47810;PMS5003;33575;52.600;7.318;2023-04-01T08:18:52;5;4;
47810;PMS5003;33575;52.600;7.318;2023-04-01T08:21:21;5;5;
47810;PMS5003;33575;52.600;7.318;2023-04-01T08:23:51;4;3;
47810;PMS5003;33575;52.600;7.318;2023-04-01T08:26:23;4;4;
47810;PMS5003;33575;52.600;7.318;2023-04-01T08:28:52;3;3;
47810;PMS5003;33575;52.600;7.318;2023-04-01T08:31:23;5;5;
47810;PMS5003;33575;52.600;7.318;2023-04-01T08:33:53;5;4;
47810;PMS5003;33575;52.600;7.318;2023-04-01T08:36:24;7;7;
47810;PMS5003;33575;52.600;7.318;2023-04-01T08:38:54;8;6;
47810;PMS5003;33575;52.600;7.318;2023-04-01T08:41:33;7;7;
47810;PMS5003;33575;52.600;7.318;2023-04-01T08:44:00;8;8;
47810;PMS5003;33575;52.600;7.318;2023-04-01T08:46:34;10;8;
47810;PMS5003;33575;52.600;7.318;2023-04-01T08:49:01;6;6;
47810;PMS5003;33575;52.600;7.318;2023-04-01T08:54:01;12;11;
47810;PMS5003;33575;52.600;7.318;2023-04-01T08:56:29;9;9;
47810;PMS5003;33575;52.600;7.318;2023-04-01T08:59:01;11;9;
47810;PMS5003;33575;52.600;7.318;2023-04-01T09:01:36;18;16;
47810;PMS5003;33575;52.600;7.318;2023-04-01T09:06:32;13;12;
47810;PMS5003;33575;52.600;7.318;2023-04-01T09:09:04;11;9;
47810;PMS5003;33575;52.600;7.318;2023-04-01T09:11:33;8;7;
47810;PMS5003;33575;52.600;7.318;2023-04-01T09:19:06;4;4;
47810;PMS5003;33575;52.600;7.318;2023-04-01T09:21:34;10;8;
47810;PMS5003;33575;52.600;7.318;2023-04-01T09:26:36;7;6;
47810;PMS5003;33575;52.600;7.318;2023-04-01T09:29:05;9;8;
47810;PMS5003;33575;52.600;7.318;2023-04-01T09:34:07;7;7;
47810;PMS5003;33575;52.600;7.318;2023-04-01T09:36:38;8;7;
47810;PMS5003;33575;52.600;7.318;2023-04-01T09:39:11;8;8;
47810;PMS5003;33575;52.600;7.318;2023-04-01T09:41:36;7;7;
47810;PMS5003;33575;52.600;7.318;2023-04-01T09:44:09;3;3;
47810;PMS5003;33575;52.600;7.318;2023-04-01T09:46:42;6;5;
47810;PMS5003;33575;52.600;7.318;2023-04-01T09:51:39;10;9;
47810;PMS5003;33575;52.600;7.318;2023-04-01T09:54:13;7;7;
47810;PMS5003;33575;52.600;7.318;2023-04-01T09:56:45;7;6;
47810;PMS5003;33575;52.600;7.318;2023-04-01T10:01:42;6;6;
47810;PMS5003;33575;52.600;7.318;2023-04-01T10:04:15;4;4;
47810;PMS5003;33575;52.600;7.318;2023-04-01T10:09:19;7;5;
47810;PMS5003;33575;52.600;7.318;2023-04-01T10:14:20;13;9;
47810;PMS5003;33575;52.600;7.318;2023-04-01T10:19:16;9;8;
47810;PMS5003;33575;52.600;7.318;2023-04-01T10:24:18;2;2;
47810;PMS5003;33575;52.600;7.318;2023-04-01T10:26:48;3;3;
47810;PMS5003;33575;52.600;7.318;2023-04-01T10:29:18;3;2;
47810;PMS5003;33575;52.600;7.318;2023-04-01T10:44:21;2;2;
47810;PMS5003;33575;52.600;7.318;2023-04-01T10:54:21;4;4;
47810;PMS5003;33575;52.600;7.318;2023-04-01T10:56:50;2;2;
47810;PMS5003;33575;52.600;7.318;2023-04-01T11:11:55;9;8;
47810;PMS5003;33575;52.600;7.318;2023-04-01T11:19:29;10;7;
47810;PMS5003;33575;52.600;7.318;2023-04-01T11:21:56;9;7;
47810;PMS5003;33575;52.600;7.318;2023-04-01T11:26:58;2;2;
47810;PMS5003;33575;52.600;7.318;2023-04-01T11:29:30;6;6;
47810;PMS5003;33575;52.600;7.318;2023-04-01T11:31:58;10;9;
47810;PMS5003;33575;52.600;7.318;2023-04-01T11:34:32;5;4;
47810;PMS5003;33575;52.600;7.318;2023-04-01T11:36:59;4;3;
47810;PMS5003;33575;52.600;7.318;2023-04-01T11:39:30;3;3;
47810;PMS5003;33575;52.600;7.318;2023-04-01T11:42:00;7;6;
47810;PMS5003;33575;52.600;7.318;2023-04-01T11:44:29;4;3;
47810;PMS5003;33575;52.600;7.318;2023-04-01T11:47:03;4;4;
47810;PMS5003;33575;52.600;7.318;2023-04-01T11:49:34;2;2;
47810;PMS5003;33575;52.600;7.318;2023-04-01T11:52:04;2;2;
47810;PMS5003;33575;52.600;7.318;2023-04-01T11:54:36;3;3;
47810;PMS5003;33575;52.600;7.318;2023-04-01T11:57:05;2;2;
47810;PMS5003;33575;52.600;7.318;2023-04-01T11:59:38;2;2;
47810;PMS5003;33575;52.600;7.318;2023-04-01T12:02:04;1;1;
47810;PMS5003;33575;52.600;7.318;2023-04-01T12:04:38;2;2;
47810;PMS5003;33575;52.600;7.318;2023-04-01T12:07:06;2;2;
47810;PMS5003;33575;52.600;7.318;2023-04-01T12:09:36;2;2;
47810;PMS5003;33575;52.600;7.318;2023-04-01T12:12:10;2;1;
47810;PMS5003;33575;52.600;7.318;2023-04-01T12:14:36;0;0;
47810;PMS5003;33575;52.600;7.318;2023-04-01T12:17:08;1;1;
47810;PMS5003;33575;52.600;7.318;2023-04-01T12:19:39;2;2;
47810;PMS5003;33575;52.600;7.318;2023-04-01T12:22:11;4;4;
47810;PMS5003;33575;52.600;7.318;2023-04-01T12:24:44;5;4;
47810;PMS5003;33575;52.600;7.318;2023-04-01T12:27:12;3;3;
47810;PMS5003;33575;52.600;7.318;2023-04-01T12:29:46;5;5;
47810;PMS5003;33575;52.600;7.318;2023-04-01T12:32:12;2;2;
47810;PMS5003;33575;52.600;7.318;2023-04-01T12:34:43;2;2;
47810;PMS5003;33575;52.600;7.318;2023-04-01T12:37:11;4;4;
47810;PMS5003;33575;52.600;7.318;2023-04-01T12:39:45;1;1;
47810;PMS5003;33575;52.600;7.318;2023-04-01T12:42:14;6;6;
47810;PMS5003;33575;52.600;7.318;2023-04-01T12:44:47;5;4;
47810;PMS5003;33575;52.600;7.318;2023-04-01T12:52:12;5;5;
47810;PMS5003;33575;52.600;7.318;2023-04-01T12:54:48;4;3;
47810;PMS5003;33575;52.600;7.318;2023-04-01T12:57:18;8;7;
47810;PMS5003;33575;52.600;7.318;2023-04-01T12:59:47;9;9;
47810;PMS5003;33575;52.600;7.318;2023-04-01T13:02:18;10;9;
47810;PMS5003;33575;52.600;7.318;2023-04-01T13:04:49;11;10;
47810;PMS5003;33575;52.600;7.318;2023-04-01T13:07:20;6;6;
47810;PMS5003;33575;52.600;7.318;2023-04-01T13:09:52;10;9;
47810;PMS5003;33575;52.600;7.318;2023-04-01T13:12:25;6;6;
47810;PMS5003;33575;52.600;7.318;2023-04-01T13:14:52;7;7;
47810;PMS5003;33575;52.600;7.318;2023-04-01T13:17:18;6;6;
47810;PMS5003;33575;52.600;7.318;2023-04-01T13:19:54;5;5;
47810;PMS5003;33575;52.600;7.318;2023-04-01T13:22:20;8;7;
47810;PMS5003;33575;52.600;7.318;2023-04-01T13:24:49;6;6;
47810;PMS5003;33575;52.600;7.318;2023-04-01T13:27:21;6;5;
47810;PMS5003;33575;52.600;7.318;2023-04-01T13:29:56;6;6;
47810;PMS5003;33575;52.600;7.318;2023-04-01T13:32:27;5;4;
47810;PMS5003;33575;52.600;7.318;2023-04-01T13:34:56;6;6;
47810;PMS5003;33575;52.600;7.318;2023-04-01T13:37:25;5;5;
47810;PMS5003;33575;52.600;7.318;2023-04-01T13:39:56;4;4;
47810;PMS5003;33575;52.600;7.318;2023-04-01T13:42:23;4;4;
47810;PMS5003;33575;52.600;7.318;2023-04-01T13:44:54;11;9;
47810;PMS5003;33575;52.600;7.318;2023-04-01T13:47:25;15;14;
47810;PMS5003;33575;52.600;7.318;2023-04-01T13:49:58;15;15;
47810;PMS5003;33575;52.600;7.318;2023-04-01T13:52:31;13;11;
47810;PMS5003;33575;52.600;7.318;2023-04-01T13:54:58;13;12;
47810;PMS5003;33575;52.600;7.318;2023-04-01T13:57:34;12;12;
47810;PMS5003;33575;52.600;7.318;2023-04-01T13:59:59;17;14;
47810;PMS5003;33575;52.600;7.318;2023-04-01T14:02:37;12;12;
47810;PMS5003;33575;52.600;7.318;2023-04-01T14:05:01;13;12;
47810;PMS5003;33575;52.600;7.318;2023-04-01T14:12:29;12;12;
47810;PMS5003;33575;52.600;7.318;2023-04-01T14:15:04;13;11;
47810;PMS5003;33575;52.600;7.318;2023-04-01T14:17:31;13;12;
47810;PMS5003;33575;52.600;7.318;2023-04-01T14:20:13;9;9;
47810;PMS5003;33575;52.600;7.318;2023-04-01T14:22:32;14;14;
47810;PMS5003;33575;52.600;7.318;2023-04-01T14:27:36;14;13;
47810;PMS5003;33575;52.600;7.318;2023-04-01T14:30:07;18;17;
47810;PMS5003;33575;52.600;7.318;2023-04-01T14:32:34;15;14;
47810;PMS5003;33575;52.600;7.318;2023-04-01T14:37:38;16;15;
47810;PMS5003;33575;52.600;7.318;2023-04-01T14:40:10;14;14;
47810;PMS5003;33575;52.600;7.318;2023-04-01T14:42:41;17;16;
47810;PMS5003;33575;52.600;7.318;2023-04-01T14:47:39;19;19;
47810;PMS5003;33575;52.600;7.318;2023-04-01T14:50:06;21;20;
47810;PMS5003;33575;52.600;7.318;2023-04-01T14:52:36;19;19;
47810;PMS5003;33575;52.600;7.318;2023-04-01T14:57:36;16;16;
47810;PMS5003;33575;52.600;7.318;2023-04-01T15:00:12;18;18;
47810;PMS5003;33575;52.600;7.318;2023-04-01T15:02:42;20;19;
47810;PMS5003;33575;52.600;7.318;2023-04-01T15:05:11;15;15;
47810;PMS5003;33575;52.600;7.318;2023-04-01T15:10:12;16;15;
47810;PMS5003;33575;52.600;7.318;2023-04-01T15:12:40;16;16;
47810;PMS5003;33575;52.600;7.318;2023-04-01T15:15:14;17;16;
47810;PMS5003;33575;52.600;7.318;2023-04-01T15:17:45;16;15;
47810;PMS5003;33575;52.600;7.318;2023-04-01T15:20:15;14;14;
47810;PMS5003;33575;52.600;7.318;2023-04-01T15:22:45;12;11;
47810;PMS5003;33575;52.600;7.318;2023-04-01T15:27:43;13;11;
47810;PMS5003;33575;52.600;7.318;2023-04-01T15:30:16;11;11;
47810;PMS5003;33575;52.600;7.318;2023-04-01T15:32:46;12;12;
47810;PMS5003;33575;52.600;7.318;2023-04-01T15:35:18;10;10;
47810;PMS5003;33575;52.600;7.318;2023-04-01T15:37:46;13;11;
47810;PMS5003;33575;52.600;7.318;2023-04-01T15:40:17;8;8;
47810;PMS5003;33575;52.600;7.318;2023-04-01T15:42:49;10;10;
47810;PMS5003;33575;52.600;7.318;2023-04-01T15:45:18;9;9;
47810;PMS5003;33575;52.600;7.318;2023-04-01T15:47:53;7;7;
47810;PMS5003;33575;52.600;7.318;2023-04-01T15:50:23;8;7;
47810;PMS5003;33575;52.600;7.318;2023-04-01T15:52:49;9;9;
47810;PMS5003;33575;52.600;7.318;2023-04-01T15:55:20;9;8;
47810;PMS5003;33575;52.600;7.318;2023-04-01T15:57:53;8;8;
47810;PMS5003;33575;52.600;7.318;2023-04-01T16:02:53;9;9;
47810;PMS5003;33575;52.600;7.318;2023-04-01T16:05:25;8;8;
47810;PMS5003;33575;52.600;7.318;2023-04-01T16:07:55;9;9;
47810;PMS5003;33575;52.600;7.318;2023-04-01T16:10:28;13;13;
47810;PMS5003;33575;52.600;7.318;2023-04-01T16:12:58;10;10;
47810;PMS5003;33575;52.600;7.318;2023-04-01T16:15:24;8;8;
47810;PMS5003;33575;52.600;7.318;2023-04-01T16:18:03;8;8;
47810;PMS5003;33575;52.600;7.318;2023-04-01T16:20:27;8;8;
47810;PMS5003;33575;52.600;7.318;2023-04-01T16:22:57;7;7;
47810;PMS5003;33575;52.600;7.318;2023-04-01T16:25:31;5;5;
47810;PMS5003;33575;52.600;7.318;2023-04-01T16:28:00;8;7;
47810;PMS5003;33575;52.600;7.318;2023-04-01T16:33:00;7;7;
47810;PMS5003;33575;52.600;7.318;2023-04-01T16:35:31;8;8;
47810;PMS5003;33575;52.600;7.318;2023-04-01T16:38:03;6;6;
47810;PMS5003;33575;52.600;7.318;2023-04-01T16:40:36;7;7;
47810;PMS5003;33575;52.600;7.318;2023-04-01T16:43:06;6;6;
47810;PMS5003;33575;52.600;7.318;2023-04-01T16:45:33;5;5;
47810;PMS5003;33575;52.600;7.318;2023-04-01T16:48:06;6;6;
47810;PMS5003;33575;52.600;7.318;2023-04-01T16:53:08;11;10;
47810;PMS5003;33575;52.600;7.318;2023-04-01T16:55:35;9;9;
47810;PMS5003;33575;52.600;7.318;2023-04-01T16:58:05;10;10;
47810;PMS5003;33575;52.600;7.318;2023-04-01T17:00:37;9;9;
47810;PMS5003;33575;52.600;7.318;2023-04-01T17:03:10;8;8;
47810;PMS5003;33575;52.600;7.318;2023-04-01T17:05:39;7;7;
47810;PMS5003;33575;52.600;7.318;2023-04-01T17:08:09;6;6;
47810;PMS5003;33575;52.600;7.318;2023-04-01T17:10:42;7;7;
47810;PMS5003;33575;52.600;7.318;2023-04-01T17:13:15;6;6;
47810;PMS5003;33575;52.600;7.318;2023-04-01T17:15:42;6;6;
47810;PMS5003;33575;52.600;7.318;2023-04-01T17:18:11;8;8;
47810;PMS5003;33575;52.600;7.318;2023-04-01T17:20:42;7;7;
47810;PMS5003;33575;52.600;7.318;2023-04-01T17:23:16;8;8;
47810;PMS5003;33575;52.600;7.318;2023-04-01T17:25:47;8;8;
47810;PMS5003;33575;52.600;7.318;2023-04-01T17:28:18;5;5;
47810;PMS5003;33575;52.600;7.318;2023-04-01T17:30:45;7;7;
47810;PMS5003;33575;52.600;7.318;2023-04-01T17:33:20;8;7;
47810;PMS5003;33575;52.600;7.318;2023-04-01T17:35:49;8;7;
47810;PMS5003;33575;52.600;7.318;2023-04-01T17:38:17;6;6;
47810;PMS5003;33575;52.600;7.318;2023-04-01T17:40:50;8;8;
47810;PMS5003;33575;52.600;7.318;2023-04-01T17:43:20;13;13;
47810;PMS5003;33575;52.600;7.318;2023-04-01T17:45:49;14;14;
47810;PMS5003;33575;52.600;7.318;2023-04-01T17:48:22;12;12;
47810;PMS5003;33575;52.600;7.318;2023-04-01T17:50:52;11;11;
47810;PMS5003;33575;52.600;7.318;2023-04-01T17:53:24;11;10;
47810;PMS5003;33575;52.600;7.318;2023-04-01T17:55:54;9;9;
47810;PMS5003;33575;52.600;7.318;2023-04-01T17:58:22;8;8;
47810;PMS5003;33575;52.600;7.318;2023-04-01T18:03:24;6;6;
47810;PMS5003;33575;52.600;7.318;2023-04-01T18:05:58;8;8;
47810;PMS5003;33575;52.600;7.318;2023-04-01T18:08:27;8;8;
47810;PMS5003;33575;52.600;7.318;2023-04-01T18:10:57;8;8;
47810;PMS5003;33575;52.600;7.318;2023-04-01T18:15:59;14;14;
47810;PMS5003;33575;52.600;7.318;2023-04-01T18:18:34;11;11;
47810;PMS5003;33575;52.600;7.318;2023-04-01T18:20:58;12;12;
47810;PMS5003;33575;52.600;7.318;2023-04-01T18:23:29;10;10;
47810;PMS5003;33575;52.600;7.318;2023-04-01T18:26:02;11;11;
47810;PMS5003;33575;52.600;7.318;2023-04-01T18:28:32;8;8;
47810;PMS5003;33575;52.600;7.318;2023-04-01T18:31:04;9;9;
47810;PMS5003;33575;52.600;7.318;2023-04-01T18:33:31;9;8;
47810;PMS5003;33575;52.600;7.318;2023-04-01T18:36:05;9;8;
47810;PMS5003;33575;52.600;7.318;2023-04-01T18:38:33;7;7;
47810;PMS5003;33575;52.600;7.318;2023-04-01T18:43:34;6;6;
47810;PMS5003;33575;52.600;7.318;2023-04-01T18:46:06;9;8;
47810;PMS5003;33575;52.600;7.318;2023-04-01T18:48:41;10;9;
47810;PMS5003;33575;52.600;7.318;2023-04-01T18:51:10;9;8;
47810;PMS5003;33575;52.600;7.318;2023-04-01T18:53:38;10;10;
47810;PMS5003;33575;52.600;7.318;2023-04-01T18:56:08;10;9;
47810;PMS5003;33575;52.600;7.318;2023-04-01T18:58:43;13;12;
47810;PMS5003;33575;52.600;7.318;2023-04-01T19:01:12;14;14;
47810;PMS5003;33575;52.600;7.318;2023-04-01T19:03:41;15;14;